Time;durP1;ratioP1;P1;durP2;ratioP2;P2;SDS_P1;SDS_P2;PMS_P1;PMS_P2;Temp;Humidity;BMP_temperature;BMP_pressure;BME280_temperature;BME280_humidity;BME280_pressure;Samples;Min_cycle;Max_cycle;Signal;HPM_P1;HPM_P2
2022/11/07 00:01:38;;;;;;;;;1.00;1.00;;;;;22.56;47.23;100769.00;5034871;28;45377;-70
2022/11/07 00:04:04;;;;;;;;;1.00;0.67;;;;;22.70;46.98;100793.91;5034505;28;45425;-70
2022/11/07 00:06:30;;;;;;;;;0.67;0.67;;;;;22.70;47.26;100788.59;5038342;28;45210;-70
2022/11/07 00:08:57;;;;;;;;;2.00;1.00;;;;;22.71;46.73;100794.72;5037026;28;45430;-70
2022/11/07 00:11:22;;;;;;;;;1.33;1.33;;;;;22.68;46.86;100787.09;5036837;28;45480;-70
2022/11/07 00:13:48;;;;;;;;;1.67;1.67;;;;;22.65;47.21;100788.28;5038207;28;45278;-70
2022/11/07 00:16:13;;;;;;;;;0.67;0.67;;;;;22.68;46.66;100793.25;5047736;28;46365;-69
2022/11/07 00:18:38;;;;;;;;;2.00;1.00;;;;;22.60;46.77;100780.91;5037829;28;45463;-70
2022/11/07 00:21:06;;;;;;;;;1.67;0.67;;;;;22.68;46.65;100803.00;5038262;28;45264;-70
2022/11/07 00:23:32;;;;;;;;;1.00;0.67;;;;;22.68;47.18;100800.38;5038078;28;45494;-70
2022/11/07 00:26:01;;;;;;;;;4.00;2.00;;;;;22.68;47.12;100803.00;5037644;28;46452;-70
2022/11/07 00:28:27;;;;;;;;;1.33;1.33;;;;;22.67;46.64;100806.66;5038111;28;45310;-69
2022/11/07 00:30:52;;;;;;;;;2.33;1.00;;;;;22.66;46.81;100819.13;5043130;28;45568;-70
2022/11/07 00:33:17;;;;;;;;;0.67;0.67;;;;;22.66;46.76;100819.13;5037567;28;45436;-69
2022/11/07 00:35:43;;;;;;;;;0.33;0.33;;;;;22.65;47.24;100817.47;5027391;28;45476;-69
2022/11/07 00:38:08;;;;;;;;;1.33;1.33;;;;;22.56;47.15;100798.19;5034891;28;45376;-70
2022/11/07 00:40:33;;;;;;;;;0.00;0.00;;;;;22.66;47.21;100815.66;5050145;28;45325;-69
2022/11/07 00:42:59;;;;;;;;;1.00;1.00;;;;;22.62;47.23;100816.00;5036755;28;45514;-70
2022/11/07 00:45:24;;;;;;;;;1.00;1.00;;;;;22.66;46.49;100829.72;5031661;28;46179;-70
2022/11/07 00:47:50;;;;;;;;;1.33;1.33;;;;;22.66;46.66;100828.91;5034234;28;50151;-70
2022/11/07 00:50:16;;;;;;;;;1.00;1.00;;;;;22.57;47.07;100820.22;5037939;28;45368;-70
2022/11/07 00:52:42;;;;;;;;;2.67;1.67;;;;;22.66;46.77;100829.72;5037717;28;45356;-70
2022/11/07 00:55:07;;;;;;;;;1.33;1.33;;;;;22.63;46.97;100824.78;5037174;28;46285;-70
2022/11/07 00:57:33;;;;;;;;;2.33;0.67;;;;;22.66;46.93;100834.22;5037820;28;45583;-69
2022/11/07 00:59:58;;;;;;;;;0.67;0.67;;;;;22.56;46.78;100814.09;5046103;28;45360;-69
2022/11/07 01:02:23;;;;;;;;;1.00;0.33;;;;;22.67;46.97;100835.84;5039701;28;45461;-69
2022/11/07 01:07:33;;;;;;;;;2.67;1.67;;;;;22.67;46.65;100827.88;5037115;28;45346;-70
2022/11/07 01:09:58;;;;;;;;;0.00;0.00;;;;;22.68;46.67;100840.16;5043587;28;45309;-70
2022/11/07 01:12:23;;;;;;;;;1.33;0.67;;;;;22.57;46.42;100823.69;5036899;28;46679;-69
2022/11/07 01:14:48;;;;;;;;;1.00;1.00;;;;;22.66;46.41;100836.84;5037244;28;46162;-70
2022/11/07 01:17:14;;;;;;;;;0.00;0.00;;;;;22.65;46.93;100841.34;5035753;28;45341;-70
2022/11/07 01:19:39;;;;;;;;;1.00;0.67;;;;;22.65;46.96;100846.63;5042223;28;45350;-70
2022/11/07 01:22:04;;;;;;;;;2.00;0.67;;;;;22.62;46.35;100841.69;5036150;28;45440;-70
2022/11/07 01:24:30;;;;;;;;;1.00;0.33;;;;;22.58;46.78;100849.22;5037332;28;45918;-70
2022/11/07 01:26:55;;;;;;;;;1.00;1.00;;;;;22.62;46.50;100855.78;5036911;28;45373;-70
2022/11/07 01:29:20;;;;;;;;;1.67;0.67;;;;;22.63;46.78;100853.97;5047204;28;45436;-70
2022/11/07 01:31:46;;;;;;;;;1.00;1.00;;;;;22.57;47.11;100846.72;5044932;28;45522;-70
2022/11/07 01:34:11;;;;;;;;;3.33;1.67;;;;;22.62;46.50;100862.91;5041675;28;46075;-70
2022/11/07 01:36:37;;;;;;;;;1.00;1.00;;;;;22.61;46.91;100851.47;5025174;28;45293;-70
2022/11/07 01:39:03;;;;;;;;;0.67;0.67;;;;;22.59;46.48;100853.50;5037207;28;45814;-70
2022/11/07 01:41:31;;;;;;;;;1.33;0.00;;;;;22.61;46.93;100864.75;5036991;28;45392;-70
2022/11/07 01:44:20;;;;;;;;;1.00;1.00;;;;;22.61;46.72;100867.38;5043906;28;46325;-70
2022/11/07 01:46:47;;;;;;;;;0.00;0.00;;;;;22.60;46.78;100863.09;4994540;28;45466;-70
2022/11/07 01:49:16;;;;;;;;;0.67;0.67;;;;;22.60;46.55;100865.75;4996685;28;45402;-69
2022/11/07 01:51:53;;;;;;;;;0.67;0.67;;;;;22.54;46.40;100852.41;5005801;28;45527;-69
2022/11/07 01:54:28;;;;;;;;;0.67;0.67;;;;;22.59;46.17;100857.97;4994695;28;46091;-70
2022/11/07 01:56:59;;;;;;;;;1.00;1.00;;;;;22.59;46.75;100850.00;4997207;28;45350;-69
2022/11/07 01:59:28;;;;;;;;;3.00;2.00;;;;;22.59;46.43;100856.16;5002722;28;45514;-69
2022/11/07 02:01:54;;;;;;;;;1.00;1.00;;;;;22.59;46.85;100855.31;4994170;28;45583;-69
2022/11/07 02:04:22;;;;;;;;;0.67;0.33;;;;;22.60;46.19;100859.63;4997060;28;47198;-70
2022/11/07 02:06:57;;;;;;;;;0.00;0.00;;;;;22.59;46.59;100856.16;5000407;28;45350;-70
2022/11/07 02:09:22;;;;;;;;;0.33;0.33;;;;;22.58;46.42;100848.38;4994806;28;45326;-70
2022/11/07 02:11:47;;;;;;;;;1.33;1.00;;;;;22.56;46.52;100845.91;4994506;28;45463;-69
2022/11/07 02:14:17;;;;;;;;;0.00;0.00;;;;;22.57;46.72;100852.88;4993792;28;47428;-69
2022/11/07 02:16:43;;;;;;;;;1.00;1.00;;;;;22.53;46.38;100841.00;4994434;28;45416;-69
2022/11/07 02:19:33;;;;;;;;;1.00;1.00;;;;;22.57;46.19;100847.56;4994423;28;45332;-68
2022/11/07 02:22:31;;;;;;;;;0.00;0.00;;;;;22.58;46.10;100846.56;4994354;28;45334;-69
2022/11/07 02:24:58;;;;;;;;;0.00;0.00;;;;;22.57;46.53;100839.59;5025584;28;46367;-69
2022/11/07 02:27:27;;;;;;;;;0.00;0.00;;;;;22.57;46.07;100838.78;5036041;28;45380;-69
2022/11/07 02:30:00;;;;;;;;;0.33;0.33;;;;;22.58;46.74;100843.91;5035753;28;45297;-70
2022/11/07 02:32:26;;;;;;;;;1.00;1.00;;;;;22.58;46.54;100843.09;5032525;28;45670;-69
2022/11/07 02:34:59;;;;;;;;;0.33;0.33;;;;;22.55;46.54;100844.28;5031666;28;47206;-69
2022/11/07 02:37:42;;;;;;;;;1.00;1.00;;;;;22.57;46.06;100847.56;5026796;28;45312;-69
2022/11/07 02:40:09;;;;;;;;;0.00;0.00;;;;;22.60;46.15;100849.03;5035817;28;45389;-70
2022/11/07 02:42:43;;;;;;;;;0.00;0.00;;;;;22.60;46.00;100849.84;5035883;28;45447;-69
2022/11/07 02:45:17;;;;;;;;;0.67;0.67;;;;;22.59;46.46;100840.25;5035376;28;46248;-69
2022/11/07 02:47:42;;;;;;;;;0.00;0.00;;;;;22.58;46.64;100843.09;5035489;28;45526;-70
2022/11/07 02:50:11;;;;;;;;;0.33;0.33;;;;;22.57;46.63;100839.59;5035760;28;45467;-70
2022/11/07 02:52:36;;;;;;;;;3.00;0.33;;;;;22.57;46.51;100836.94;5036100;28;45401;-69
2022/11/07 02:55:03;;;;;;;;;1.67;0.00;;;;;22.46;45.97;100822.31;5035346;28;46108;-69
2022/11/07 02:57:29;;;;;;;;;1.67;1.00;;;;;22.55;46.44;100833.66;5035582;28;45278;-70
2022/11/07 02:59:54;;;;;;;;;0.00;0.00;;;;;22.48;46.42;100825.59;5043284;28;45592;-69
2022/11/07 03:02:19;;;;;;;;;1.00;0.33;;;;;22.57;46.20;100830.81;5036087;28;45532;-69
2022/11/07 03:04:45;;;;;;;;;2.33;0.33;;;;;22.57;46.51;100830.81;5035554;28;46950;-69
2022/11/07 03:07:10;;;;;;;;;0.00;0.00;;;;;22.54;46.46;100820.56;5035524;28;45325;-69
2022/11/07 03:09:35;;;;;;;;;1.67;1.00;;;;;22.56;46.48;100827.34;5034085;28;49437;-70
2022/11/07 03:12:00;;;;;;;;;2.00;1.00;;;;;22.55;46.57;100819.59;5035518;28;45458;-70
2022/11/07 03:14:26;;;;;;;;;0.00;0.00;;;;;22.57;46.38;100822.88;5033672;28;46387;-69
2022/11/07 03:16:51;;;;;;;;;0.67;0.67;;;;;22.57;46.60;100822.88;5035317;28;45427;-70
2022/11/07 03:19:16;;;;;;;;;0.67;0.67;;;;;22.56;46.43;100813.28;5035391;28;45479;-70
2022/11/07 03:21:42;;;;;;;;;1.00;1.00;;;;;22.55;46.45;100808.97;5034600;28;50053;-69
2022/11/07 03:24:07;;;;;;;;;3.33;0.00;;;;;22.50;46.42;100801.59;5035063;28;47008;-69
2022/11/07 03:26:32;;;;;;;;;1.67;0.67;;;;;22.54;46.04;100810.78;5033821;28;46378;-70
2022/11/07 03:28:58;;;;;;;;;0.33;0.33;;;;;22.54;46.03;100810.78;5047581;28;45421;-69
2022/11/07 03:31:24;;;;;;;;;2.33;0.67;;;;;22.54;46.62;100802.84;5035666;28;45324;-69
2022/11/07 03:33:49;;;;;;;;;3.00;0.67;;;;;22.54;46.59;100810.78;5035369;28;46893;-69
2022/11/07 03:36:14;;;;;;;;;0.67;0.67;;;;;22.54;46.12;100805.50;5027851;28;45427;-70
2022/11/07 03:38:40;;;;;;;;;0.00;0.00;;;;;22.54;46.60;100802.03;5040668;28;45339;-69
2022/11/07 03:41:05;;;;;;;;;1.00;1.00;;;;;22.52;46.12;100795.09;5042443;28;45598;-69
2022/11/07 03:43:30;;;;;;;;;2.00;0.33;;;;;22.55;46.13;100801.03;5035838;28;46192;-69
2022/11/07 03:45:56;;;;;;;;;1.00;1.00;;;;;22.51;46.37;100797.91;5046117;28;45283;-69
2022/11/07 03:48:21;;;;;;;;;2.00;0.00;;;;;22.53;46.36;100801.22;5038707;28;45342;-69
2022/11/07 03:50:46;;;;;;;;;2.00;2.00;;;;;22.53;46.48;100801.22;5038956;28;45462;-69
2022/11/07 03:53:11;;;;;;;;;1.67;1.00;;;;;22.54;46.05;100802.03;5037785;28;46245;-69
2022/11/07 03:55:38;;;;;;;;;0.33;0.33;;;;;22.51;46.54;100790.78;5038283;28;45437;-69
2022/11/07 03:58:03;;;;;;;;;0.00;0.00;;;;;22.55;46.42;100796.53;5039080;28;45349;-69
2022/11/07 04:00:29;;;;;;;;;0.00;0.00;;;;;22.48;46.09;100787.69;5038146;28;45304;-69
2022/11/07 04:02:54;;;;;;;;;0.00;0.00;;;;;22.55;45.93;100798.38;5037300;28;45796;-69
2022/11/07 04:05:19;;;;;;;;;0.33;0.33;;;;;22.56;46.52;100800.03;5038002;28;48584;-69
2022/11/07 04:07:45;;;;;;;;;4.00;0.67;;;;;22.56;46.41;100805.34;5041453;28;45502;-70
2022/11/07 04:10:10;;;;;;;;;1.00;0.67;;;;;22.49;46.01;100786.66;5044143;28;45495;-69
2022/11/07 04:18:07;;;;;;;;;0.67;0.67;;;;;22.55;46.52;100801.84;5029915;28;45360;-70
2022/11/07 04:20:35;;;;;;;;;0.67;0.67;;;;;22.51;46.34;100804.03;5038470;28;45586;-70
2022/11/07 04:23:01;;;;;;;;;0.33;0.33;;;;;22.54;45.73;100808.16;5037995;28;46074;-70
2022/11/07 04:28:10;;;;;;;;;1.00;0.00;;;;;22.55;45.91;100824.88;5026551;28;45214;-69
2022/11/07 04:30:35;;;;;;;;;0.67;0.67;;;;;22.45;46.22;100823.34;5037753;28;45488;-70
2022/11/07 04:33:01;;;;;;;;;3.00;1.00;;;;;22.54;46.15;100833.84;5044694;28;46026;-70
2022/11/07 04:35:32;;;;;;;;;1.67;0.00;;;;;22.54;45.88;100841.78;5029609;28;45346;-71
2022/11/07 04:37:58;;;;;;;;;0.00;0.00;;;;;22.51;46.01;100835.84;5032763;28;45297;-70
2022/11/07 04:40:25;;;;;;;;;0.00;0.00;;;;;22.54;46.35;100841.78;5041399;28;45420;-70
2022/11/07 04:42:50;;;;;;;;;0.00;0.00;;;;;22.53;46.01;100846.28;5037793;28;46973;-70
2022/11/07 04:45:16;;;;;;;;;0.00;0.00;;;;;22.51;46.10;100845.63;5037701;28;45384;-70
2022/11/07 04:47:42;;;;;;;;;0.33;0.00;;;;;22.47;46.49;100841.72;5040305;28;45431;-70
2022/11/07 04:50:10;;;;;;;;;0.33;0.33;;;;;22.54;45.99;100857.69;5040684;28;45453;-68
2022/11/07 04:52:36;;;;;;;;;0.67;0.67;;;;;22.47;46.21;100855.78;5041385;28;45368;-70
2022/11/07 04:55:01;;;;;;;;;0.67;0.00;;;;;22.52;46.48;100857.88;5041819;28;45380;-70
2022/11/07 04:57:27;;;;;;;;;0.33;0.33;;;;;22.52;46.45;100853.41;5045948;28;45304;-68
2022/11/07 04:59:52;;;;;;;;;0.00;0.00;;;;;22.52;46.49;100855.25;5037511;28;45571;-70
2022/11/07 05:02:17;;;;;;;;;1.00;0.00;;;;;22.52;46.50;100857.88;5037031;28;55142;-70
2022/11/07 05:04:43;;;;;;;;;0.67;0.67;;;;;22.51;45.99;100854.41;5039567;28;54146;-70
2022/11/07 05:07:08;;;;;;;;;0.00;0.00;;;;;22.52;46.43;100861.38;5037494;28;45447;-70
2022/11/07 05:09:33;;;;;;;;;0.33;0.33;;;;;22.52;45.90;100858.72;5037412;28;45364;-70
2022/11/07 05:12:00;;;;;;;;;0.67;0.67;;;;;22.52;46.40;100865.84;5037035;28;46018;-70
2022/11/07 05:14:25;;;;;;;;;1.33;0.00;;;;;22.51;45.92;100870.31;5037327;28;45455;-70
2022/11/07 05:16:53;;;;;;;;;0.33;0.33;;;;;22.48;46.02;100861.94;5037351;28;45417;-70
2022/11/07 05:19:19;;;;;;;;;1.67;1.00;;;;;22.50;45.84;100867.88;5037184;28;45622;-70
2022/11/07 05:21:46;;;;;;;;;4.67;1.00;;;;;22.48;46.38;100870.69;5044950;28;45411;-70
2022/11/07 05:24:12;;;;;;;;;1.33;1.00;;;;;22.48;45.77;100872.53;5036612;28;45471;-70
2022/11/07 05:26:38;;;;;;;;;2.67;1.00;;;;;22.47;46.49;100876.19;5037366;28;45442;-70
2022/11/07 05:29:05;;;;;;;;;0.67;0.67;;;;;22.42;46.02;100860.00;5048994;28;45390;-69
2022/11/07 05:31:30;;;;;;;;;1.00;1.00;;;;;22.39;45.96;100855.88;5037031;28;46141;-70
2022/11/07 05:33:55;;;;;;;;;1.00;1.00;;;;;22.40;46.42;100855.69;5036965;28;45673;-70
2022/11/07 05:36:22;;;;;;;;;1.00;0.00;;;;;22.49;46.17;100869.69;5029685;28;45507;-70
2022/11/07 05:38:50;;;;;;;;;0.67;0.67;;;;;22.49;46.04;100869.69;5036899;28;45428;-70
2022/11/07 05:41:18;;;;;;;;;0.00;0.00;;;;;22.51;45.99;100862.38;5036722;28;45458;-70
2022/11/07 05:43:44;;;;;;;;;0.67;0.67;;;;;22.51;46.45;100858.88;5037781;28;45419;-69
2022/11/07 05:46:10;;;;;;;;;0.00;0.00;;;;;22.52;46.23;100868.50;5037283;28;45254;-69
2022/11/07 05:48:36;;;;;;;;;3.33;0.67;;;;;22.46;46.20;100856.78;5036789;28;45385;-69
2022/11/07 05:51:02;;;;;;;;;0.00;0.00;;;;;22.54;46.26;100865.66;5036913;28;46195;-69
2022/11/07 05:53:28;;;;;;;;;0.00;0.00;;;;;22.52;46.37;100864.03;5036595;28;45357;-70
2022/11/07 05:55:54;;;;;;;;;0.00;0.00;;;;;22.53;45.76;100859.56;5037062;28;45391;-69
2022/11/07 05:58:20;;;;;;;;;1.33;0.00;;;;;22.52;45.76;100865.84;5036613;28;45614;-70
2022/11/07 06:00:46;;;;;;;;;4.67;0.67;;;;;22.54;46.21;100865.66;5043864;28;45483;-69
2022/11/07 06:03:12;;;;;;;;;0.00;0.00;;;;;22.52;46.32;100865.84;5036289;28;45355;-69
2022/11/07 06:05:39;;;;;;;;;1.33;0.67;;;;;22.53;46.29;100870.16;5036726;28;45459;-70
2022/11/07 06:08:07;;;;;;;;;2.00;0.00;;;;;22.53;45.83;100867.50;5035720;28;45500;-69
2022/11/07 06:10:32;;;;;;;;;0.00;0.00;;;;;22.47;46.12;100858.44;5036277;28;46372;-69
2022/11/07 06:13:03;;;;;;;;;0.00;0.00;;;;;22.52;45.87;100866.69;5039472;28;45344;-69
2022/11/07 06:15:31;;;;;;;;;1.00;1.00;;;;;22.52;46.34;100863.19;5036934;28;45375;-69
2022/11/07 06:18:05;;;;;;;;;0.67;0.00;;;;;22.53;45.77;100862.19;5046172;28;45314;-69
2022/11/07 06:20:31;;;;;;;;;0.00;0.00;;;;;22.53;46.06;100867.50;5036125;28;46340;-69
2022/11/07 06:23:01;;;;;;;;;1.00;0.67;;;;;22.52;45.78;100873.81;5035776;28;45436;-70
2022/11/07 06:25:27;;;;;;;;;1.33;0.33;;;;;22.51;45.72;100872.97;5034683;28;45475;-73
2022/11/07 06:27:57;;;;;;;;;0.00;0.00;;;;;22.51;45.77;100872.13;5034711;28;45632;-70
2022/11/07 06:30:23;;;;;;;;;1.00;1.00;;;;;22.50;46.41;100875.81;5039863;28;46235;-69
2022/11/07 06:32:48;;;;;;;;;0.00;0.00;;;;;22.40;46.07;100860.19;5043153;28;45336;-69
2022/11/07 06:35:13;;;;;;;;;0.00;0.00;;;;;22.49;45.77;100877.63;5029331;28;45501;-69
2022/11/07 06:37:39;;;;;;;;;0.67;0.67;;;;;22.51;46.37;100880.94;5028570;28;45218;-69
2022/11/07 06:40:05;;;;;;;;;0.00;0.00;;;;;22.55;46.34;100877.91;5036062;28;46261;-69
2022/11/07 06:42:31;;;;;;;;;0.00;0.00;;;;;22.50;46.04;100873.16;5039157;28;45379;-72
2022/11/07 06:44:56;;;;;;;;;0.00;0.00;;;;;22.51;46.52;100880.94;5039779;28;45471;-70
2022/11/07 06:47:21;;;;;;;;;0.00;0.00;;;;;22.47;46.16;100873.53;5036336;28;45320;-70
2022/11/07 06:49:47;;;;;;;;;3.00;1.33;;;;;22.49;46.04;100882.94;5035191;28;45946;-71
2022/11/07 06:52:12;;;;;;;;;1.00;0.67;;;;;22.52;46.42;100879.09;5047271;28;45400;-71
2022/11/07 06:54:37;;;;;;;;;2.00;1.00;;;;;22.52;46.64;100884.41;5035516;28;45498;-70
2022/11/07 06:57:03;;;;;;;;;1.00;0.67;;;;;22.49;46.10;100871.50;5033627;28;47450;-74
2022/11/07 06:59:28;;;;;;;;;0.00;0.00;;;;;22.51;46.50;100866.84;5029912;28;45521;-71
2022/11/07 07:01:53;;;;;;;;;0.67;0.00;;;;;22.51;46.26;100875.63;5027655;28;45530;-70
2022/11/07 07:04:19;;;;;;;;;0.00;0.00;;;;;22.39;46.24;100867.31;5031360;28;45351;-73
2022/11/07 07:06:44;;;;;;;;;0.67;0.67;;;;;22.51;46.62;100882.75;5031697;28;45449;-73
2022/11/07 07:09:10;;;;;;;;;1.00;0.00;;;;;22.48;46.28;100886.59;5030546;28;47028;-74
2022/11/07 07:11:38;;;;;;;;;0.00;0.00;;;;;22.51;46.65;100896.84;5029518;28;45456;-73
2022/11/07 07:14:04;;;;;;;;;0.67;0.33;;;;;22.53;46.77;100901.97;5027873;28;45839;-72
2022/11/07 07:16:30;;;;;;;;;0.00;0.00;;;;;22.51;46.30;100906.63;5032261;28;45523;-74
2022/11/07 07:18:56;;;;;;;;;0.67;0.67;;;;;22.53;47.06;100909.94;5031100;28;45475;-72
2022/11/07 07:21:21;;;;;;;;;1.33;0.67;;;;;22.54;46.74;100913.38;5035878;28;45497;-71
2022/11/07 07:23:46;;;;;;;;;0.33;0.33;;;;;22.44;46.65;100897.75;5030545;28;45479;-72
2022/11/07 07:26:14;;;;;;;;;3.67;0.67;;;;;22.53;47.01;100915.22;5018612;28;45550;-70
2022/11/07 07:28:40;;;;;;;;;2.00;1.00;;;;;22.54;47.09;100918.69;5019132;28;47320;-72
2022/11/07 07:31:11;;;;;;;;;2.67;0.00;;;;;22.56;46.74;100922.00;5026616;28;45498;-73
2022/11/07 07:33:37;;;;;;;;;0.00;0.00;;;;;22.57;47.26;100931.59;5027351;28;45462;-72
2022/11/07 07:36:02;;;;;;;;;0.33;0.00;;;;;22.56;46.69;100924.66;5019097;28;45432;-72
2022/11/07 07:38:28;;;;;;;;;0.67;0.00;;;;;22.56;47.25;100928.09;5037425;28;48175;-72
2022/11/07 07:40:53;;;;;;;;;1.67;0.67;;;;;22.56;46.97;100925.44;5038752;28;45280;-72
2022/11/07 07:43:18;;;;;;;;;0.00;0.00;;;;;22.56;46.95;100927.31;5039020;28;45488;-72
2022/11/07 07:45:43;;;;;;;;;1.00;1.00;;;;;22.45;46.85;100913.47;5038998;28;45368;-72
2022/11/07 07:48:09;;;;;;;;;0.67;0.67;;;;;22.51;47.00;100923.34;5039519;28;46381;-72
2022/11/07 07:50:34;;;;;;;;;0.67;0.00;;;;;22.55;46.62;100933.59;5050632;28;45273;-72
2022/11/07 07:52:59;;;;;;;;;0.67;0.67;;;;;22.56;46.74;100935.25;5043471;28;45457;-72
2022/11/07 07:55:25;;;;;;;;;0.33;0.33;;;;;22.56;47.20;100938.72;5039688;28;45205;-72
2022/11/07 07:57:50;;;;;;;;;0.33;0.33;;;;;22.55;47.26;100939.72;5038243;28;45309;-72
2022/11/07 08:00:16;;;;;;;;;0.00;0.00;;;;;22.56;47.03;100938.72;5045386;28;45276;-72
2022/11/07 08:02:42;;;;;;;;;0.00;0.00;;;;;22.54;47.37;100945.19;5043104;28;45470;-72
2022/11/07 08:05:08;;;;;;;;;0.33;0.33;;;;;22.55;47.37;100949.50;5044203;28;45522;-73
2022/11/07 08:07:33;;;;;;;;;2.00;0.00;;;;;22.53;46.78;100947.03;5038173;28;46297;-72
2022/11/07 08:09:59;;;;;;;;;4.00;0.00;;;;;22.43;46.81;100930.56;5038394;28;45357;-72
2022/11/07 08:12:24;;;;;;;;;0.00;0.00;;;;;22.52;46.70;100948.88;5038723;28;45309;-72
2022/11/07 08:14:49;;;;;;;;;0.67;0.67;;;;;22.54;46.81;100956.63;5038644;28;45777;-72
2022/11/07 08:17:15;;;;;;;;;0.00;0.00;;;;;22.49;47.15;100945.75;5037868;28;45396;-72
2022/11/07 08:19:40;;;;;;;;;0.67;0.67;;;;;22.52;46.90;100948.88;5037889;28;45451;-72
2022/11/07 08:22:05;;;;;;;;;0.00;0.00;;;;;22.46;47.04;100941.63;5036760;28;45368;-73
2022/11/07 08:24:30;;;;;;;;;0.33;0.33;;;;;22.52;46.93;100962.13;5038381;28;45392;-72
2022/11/07 08:26:56;;;;;;;;;0.00;0.00;;;;;22.51;47.29;100963.13;5044965;28;45304;-72
2022/11/07 08:29:21;;;;;;;;;2.00;0.33;;;;;22.52;47.21;100961.31;5039603;28;45487;-72
2022/11/07 08:31:49;;;;;;;;;0.00;0.00;;;;;22.39;46.99;100943.34;5037279;28;45522;-72
2022/11/07 08:34:15;;;;;;;;;2.67;1.33;;;;;22.54;47.16;100958.44;5038826;28;45329;-72
2022/11/07 08:36:40;;;;;;;;;0.00;0.00;;;;;22.52;47.22;100953.34;5025563;28;46303;-72
2022/11/07 08:39:05;;;;;;;;;2.00;0.00;;;;;22.44;46.88;100945.47;5038103;28;45317;-72
2022/11/07 08:41:31;;;;;;;;;0.00;0.00;;;;;22.56;47.33;100959.13;5038054;28;46203;-72
2022/11/07 08:43:56;;;;;;;;;2.00;0.00;;;;;22.57;47.06;100947.50;5037756;28;45304;-72
2022/11/07 08:46:21;;;;;;;;;0.00;0.00;;;;;22.55;46.74;100950.34;5037510;28;49258;-72
2022/11/07 08:48:47;;;;;;;;;0.00;0.00;;;;;22.57;47.38;100958.09;5040940;28;48069;-72
2022/11/07 08:51:12;;;;;;;;;0.33;0.33;;;;;22.58;47.40;100957.94;5046083;28;45487;-72
2022/11/07 08:53:37;;;;;;;;;0.00;0.00;;;;;22.55;46.89;100952.16;5037424;28;45254;-72
2022/11/07 08:56:07;;;;;;;;;0.00;0.00;;;;;22.59;47.40;100958.72;5037942;28;46201;-72
2022/11/07 08:58:33;;;;;;;;;0.67;0.67;;;;;22.60;46.88;100949.78;5038688;28;45486;-72
2022/11/07 09:00:59;;;;;;;;;0.67;0.67;;;;;22.55;47.16;100950.34;5037425;28;45325;-72
2022/11/07 09:03:24;;;;;;;;;0.00;0.00;;;;;22.58;47.17;100947.31;5023329;28;45437;-72
2022/11/07 09:05:50;;;;;;;;;0.67;0.67;;;;;22.59;47.36;100954.25;5037341;28;45988;-72
2022/11/07 09:08:15;;;;;;;;;0.33;0.00;;;;;22.59;46.73;100953.44;5037392;28;45245;-72
2022/11/07 09:10:41;;;;;;;;;1.33;0.67;;;;;22.59;47.17;100959.56;5043108;28;45353;-72
2022/11/07 09:13:06;;;;;;;;;1.00;0.00;;;;;22.60;46.88;100957.75;5037594;28;45451;-72
2022/11/07 09:15:32;;;;;;;;;0.00;0.00;;;;;22.57;47.23;100958.94;5046809;28;45304;-72
2022/11/07 09:18:04;;;;;;;;;0.00;0.00;;;;;22.59;46.72;100964.03;5037310;28;45368;-72
2022/11/07 09:20:31;;;;;;;;;2.67;0.00;;;;;22.56;46.88;100957.28;5037538;28;45427;-72
2022/11/07 09:22:57;;;;;;;;;0.33;0.33;;;;;22.58;46.75;100960.59;5037167;28;45423;-72
2022/11/07 09:25:23;;;;;;;;;0.00;0.00;;;;;22.48;46.90;100936.97;5037143;28;45383;-72
2022/11/07 09:27:50;;;;;;;;;0.67;0.67;;;;;22.58;47.44;100951.81;5037087;28;45448;-72
2022/11/07 09:30:22;;;;;;;;;1.00;1.00;;;;;22.52;47.24;100945.38;5036732;28;45449;-72
2022/11/07 09:32:47;;;;;;;;;0.00;0.00;;;;;22.57;46.86;100956.28;5037136;28;45380;-72
2022/11/07 09:35:13;;;;;;;;;1.33;0.00;;;;;22.57;46.88;100955.44;5030743;28;45367;-73
2022/11/07 09:37:42;;;;;;;;;0.67;0.67;;;;;22.47;47.19;100942.47;5036917;28;45450;-72
2022/11/07 09:40:53;;;;;;;;;0.50;0.50;;;;;22.49;46.80;100943.91;5037087;28;45437;-72
2022/11/07 09:43:22;;;;;;;;;0.00;0.00;;;;;22.56;47.19;100949.31;5028358;28;45685;-72
2022/11/07 09:46:02;;;;;;;;;3.67;0.67;;;;;22.55;46.88;100952.16;5036491;28;46126;-72
2022/11/07 09:48:37;;;;;;;;;0.33;0.33;;;;;22.54;46.66;100964.59;5039018;28;45388;-72
2022/11/07 09:51:03;;;;;;;;;2.67;0.00;;;;;22.54;47.05;100956.63;5046558;28;45298;-73
2022/11/07 09:53:41;;;;;;;;;0.00;0.00;;;;;22.55;47.14;100970.72;5042135;28;45372;-72
2022/11/07 09:56:11;;;;;;;;;1.00;0.00;;;;;22.54;46.74;100969.06;5036527;28;47227;-72
2022/11/07 09:58:46;;;;;;;;;0.00;0.00;;;;;22.54;46.85;100969.88;5036428;28;45369;-72
2022/11/07 10:01:19;;;;;;;;;0.00;0.00;;;;;22.53;47.35;100960.31;5043929;28;45329;-72
2022/11/07 10:03:45;;;;;;;;;0.33;0.33;;;;;22.39;47.06;100930.09;5046079;28;45460;-72
2022/11/07 10:06:21;;;;;;;;;1.33;0.00;;;;;22.48;47.20;100952.88;5036371;28;46966;-72
2022/11/07 10:08:56;;;;;;;;;0.00;0.00;;;;;22.54;46.71;100961.09;5036349;28;45341;-72
2022/11/07 10:11:31;;;;;;;;;0.00;0.00;;;;;22.53;47.24;100957.66;5035080;28;45431;-72
2022/11/07 10:14:18;;;;;;;;;1.00;0.00;;;;;22.54;47.24;100966.41;5035992;28;45457;-72
2022/11/07 10:16:59;;;;;;;;;3.00;0.00;;;;;22.55;47.17;100974.19;5036606;28;46222;-72
2022/11/07 10:19:40;;;;;;;;;3.00;0.33;;;;;22.53;47.37;100968.25;5032713;28;45469;-72
2022/11/07 10:22:30;;;;;;;;;1.33;0.67;;;;;22.54;47.29;100974.38;5036028;28;45456;-72
2022/11/07 10:25:14;;;;;;;;;0.00;0.00;;;;;22.57;46.45;100974.00;5036126;28;45273;-72
2022/11/07 10:27:40;;;;;;;;;3.00;0.00;;;;;22.57;47.02;100976.66;5044282;28;47024;-72
2022/11/07 10:30:15;;;;;;;;;0.00;0.00;;;;;22.59;46.70;100977.28;5039717;28;45411;-72
2022/11/07 10:32:57;;;;;;;;;0.00;0.00;;;;;22.58;47.14;100983.63;5036378;28;45249;-72
2022/11/07 10:35:32;;;;;;;;;1.00;0.00;;;;;22.57;47.12;100977.50;5035306;28;45306;-72
2022/11/07 10:38:16;;;;;;;;;0.00;0.00;;;;;22.58;47.29;100981.81;5034123;28;47053;-72
2022/11/07 10:40:42;;;;;;;;;6.00;0.00;;;;;22.58;47.10;100983.63;5036119;28;45394;-72
2022/11/07 10:43:18;;;;;;;;;0.00;0.00;;;;;22.57;47.18;100974.84;5035230;28;45363;-72
2022/11/07 10:45:44;;;;;;;;;0.00;0.00;;;;;22.47;47.06;100967.16;5035917;28;45406;-72
2022/11/07 10:48:11;;;;;;;;;3.33;1.00;;;;;22.52;46.99;100978.03;5035750;28;46085;-72
2022/11/07 10:50:37;;;;;;;;;1.00;1.00;;;;;22.56;47.03;100975.81;5035823;28;45495;-72
2022/11/07 10:53:08;;;;;;;;;0.00;0.00;;;;;22.58;47.42;100973.00;5036195;28;45380;-72
2022/11/07 10:55:42;;;;;;;;;0.00;0.00;;;;;22.58;47.13;100973.00;5035801;28;45603;-72
2022/11/07 10:58:18;;;;;;;;;0.33;0.33;;;;;22.57;46.65;100969.53;5038670;28;46396;-72
2022/11/07 11:00:56;;;;;;;;;1.00;1.00;;;;;22.58;46.77;100976.50;5029799;28;45413;-72
2022/11/07 11:03:29;;;;;;;;;1.33;1.00;;;;;22.57;46.92;100971.34;5037210;28;45325;-72
2022/11/07 11:05:55;;;;;;;;;0.00;0.00;;;;;22.57;46.79;100968.72;5022848;28;45245;-72
2022/11/07 11:08:30;;;;;;;;;0.33;0.33;;;;;22.51;47.10;100956.97;5043040;28;47174;-72
2022/11/07 11:10:56;;;;;;;;;0.67;0.67;;;;;22.46;46.66;100938.16;5021715;28;45511;-72
2022/11/07 11:13:32;;;;;;;;;0.67;0.67;;;;;22.57;47.00;100947.50;5035781;28;45292;-72
2022/11/07 11:16:10;;;;;;;;;0.33;0.33;;;;;22.56;46.61;100937.91;5035475;28;45498;-72
2022/11/07 11:18:35;;;;;;;;;0.33;0.33;;;;;22.56;47.28;100933.41;5035269;28;47424;-72
2022/11/07 11:21:01;;;;;;;;;0.00;0.00;;;;;22.56;47.03;100936.06;5035180;28;45441;-72
2022/11/07 11:23:35;;;;;;;;;1.67;0.67;;;;;22.59;47.27;100935.69;5035783;28;45484;-72
2022/11/07 11:26:04;;;;;;;;;0.00;0.00;;;;;22.57;46.56;100926.28;5036462;28;45495;-72
2022/11/07 11:28:42;;;;;;;;;1.00;0.33;;;;;22.57;47.08;100924.47;5035308;28;46961;-72
2022/11/07 11:31:20;;;;;;;;;0.33;0.00;;;;;22.58;47.21;100919.97;5034935;28;45531;-73
2022/11/07 11:33:50;;;;;;;;;1.67;0.00;;;;;22.58;47.08;100926.13;5035032;28;45512;-72
2022/11/07 11:36:22;;;;;;;;;0.00;0.00;;;;;22.57;46.73;100920.97;5022043;28;45549;-72
2022/11/07 11:38:53;;;;;;;;;0.67;0.67;;;;;22.56;46.90;100916.69;5035181;28;47319;-72